Flight Track Log - Related Links

Times and Time Zones

All times are in EDT time to prevent confusion due to time zone crossing. See the N388AC flight status page for this flight to view local times or setup timezone preferences in your user account.

Time Position Orientation Groundspeed Altitude Reporting Facility
EDT Latitude Longitude Course Direction KTS MPH feet Rate Location/Type
Thu 09:02:34 AM 26.8064 -80.2128 338° Northwest 268 308 3,500  Level Miami Center
Thu 09:03:34 AM 26.8681 -80.2567 328° Northwest 268 308 5,800 2,350 Climbing Miami Center
Thu 09:04:34 AM 26.9275 -80.3025 325° Northwest 268 308 8,200 2,400 Climbing Miami Center
Thu 09:05:34 AM 26.9825 -80.3531 321° Northwest 268 308 10,600 2,450 Climbing Miami Center
Thu 09:06:00 AM 27.0370 -80.4035 338° Northwest  Level FlightAware Approximate
Thu 09:06:34 AM 27.0056 -80.4425 286° West 280 322 13,100  Level Miami Center
Thu 09:07:34 AM 27.0275 -80.5619 282° West 334 384 15,500 2,150 Climbing Miami Center
Thu 09:08:34 AM 27.0517 -80.6747 284° West 368 423 17,400 1,950 Climbing Miami Center
Thu 09:09:34 AM 27.0717 -80.7919 281° West 390 449 19,400 2,000 Climbing Miami Center
Thu 09:10:34 AM 27.0956 -80.9117 283° West 390 449 21,400 1,700 Climbing Miami Center
Thu 09:11:34 AM 27.1192 -81.0361 282° West 396 456 22,800 1,350 Climbing Miami Center
Thu 09:12:34 AM 27.1425 -81.1583 282° West 396 456 24,100 1,300 Climbing Miami Center
Thu 09:13:34 AM 27.1703 -81.2831 284° West 402 463 25,400 1,300 Climbing Miami Center
Thu 09:14:34 AM 27.2250 -81.4042 297° West 416 479 26,700 1,250 Climbing Miami Center
Thu 09:15:34 AM 27.2758 -81.5114 298° West 422 486 27,900 1,250 Climbing Miami Center
Thu 09:16:34 AM 27.3300 -81.6350 296° West 437 503 29,200 1,400 Climbing Miami Center
Thu 09:17:34 AM 27.3775 -81.7772 291° West 437 503 30,700 1,350 Climbing Miami Center
Thu 09:18:34 AM 27.4125 -81.9097 287° West 445 512 31,900 1,250 Climbing Miami Center
Thu 09:19:34 AM 27.4456 -82.0422 286° West 440 506 33,200 1,250 Climbing Miami Center
Thu 09:20:34 AM 27.4639 -82.1669 279° West 440 506 34,400 1,350 Climbing Miami Center
Thu 09:21:34 AM 27.4856 -82.3153 279° West 440 506 35,900 1,400 Climbing Miami Center
Thu 09:22:34 AM 27.5053 -82.4497 279° West 440 506 37,200 1,350 Climbing Miami Center
Thu 09:23:34 AM 27.5233 -82.5792 279° West 440 506 38,600 1,400 Climbing Miami Center
Thu 09:24:34 AM 27.5436 -82.6972 281° West 427 491 40,000 700 Climbing Miami Center
Thu 09:25:34 AM 27.5633 -82.8294 280° West 427 491 40,000  Level Miami Center
Thu 09:26:34 AM 27.5783 -82.9636 277° West 432 497 40,000  Level Miami Center
Thu 09:27:34 AM 27.5978 -83.0958 279° West 432 497 40,000  Level Miami Center
Thu 09:28:34 AM 27.6150 -83.2278 278° West 432 497 40,000  Level Miami Center
Thu 09:29:34 AM 27.6361 -83.3600 280° West 432 497 40,000  Level Miami Center
Thu 09:30:34 AM 27.6508 -83.4967 277° West 432 497 40,000  Level Miami Center
Thu 09:31:34 AM 27.6736 -83.6364 280° West 443 510 40,000  Level Miami Center
Thu 09:32:34 AM 27.6897 -83.7756 277° West 448 516 40,000  Level Miami Center
Thu 09:33:34 AM 27.7103 -83.9125 280° West 448 516 40,000  Level Miami Center
Thu 09:34:34 AM 27.7242 -84.0517 276° West 448 516 40,000  Level Miami Center
Thu 09:35:34 AM 27.7444 -84.1889 280° West 448 516 40,000  Level Miami Center
Thu 09:36:34 AM 27.7625 -84.3258 279° West 448 516 40,000  Level Miami Center
Thu 09:37:34 AM 27.7867 -84.4611 281° West 454 522 40,000  Level Miami Center
Thu 09:38:34 AM 27.7917 -84.6022 272° West 449 517 40,000  Level Miami Center
Thu 09:38:57 AM 27.8081 -84.6592 288° West 450 518 40,000  Level Jacksonville Center
Thu 09:39:57 AM 27.8250 -84.8003 278° West 450 518 40,000  Level Jacksonville Center
Thu 09:40:57 AM 27.8417 -84.9389 278° West 447 514 40,000  Level Jacksonville Center
Thu 09:41:57 AM 27.8603 -85.0778 279° West 452 520 40,000  Level Jacksonville Center
Thu 09:42:57 AM 27.8808 -85.2119 280° West 451 519 40,000  Level Jacksonville Center
Thu 09:43:57 AM 27.9117 -85.3467 285° West 444 511 40,000  Level Jacksonville Center
Thu 09:44:57 AM 27.9444 -85.4836 285° West 444 511 40,000  Level Jacksonville Center
Thu 09:45:57 AM 27.9792 -85.6208 286° West 444 511 40,000  Level Jacksonville Center
Thu 09:46:57 AM 28.0139 -85.7511 287° West 444 511 40,000  Level Jacksonville Center
Thu 09:47:57 AM 28.0486 -85.8814 287° West 438 504 40,000  Level Jacksonville Center
Thu 09:48:57 AM 28.0808 -86.0139 285° West 438 504 40,000  Level Jacksonville Center
Thu 09:49:58 AM 28.1150 -86.1469 286° West 438 504 40,000  Level Jacksonville Center
Thu 09:50:57 AM 28.1472 -86.2797 285° West 440 506 40,000  Level Jacksonville Center
Thu 09:51:57 AM 28.1831 -86.4172 287° West 439 505 40,000  Level Jacksonville Center
Thu 09:52:57 AM 28.2128 -86.5433 285° West 439 505 40,000  Level Jacksonville Center
Thu 09:53:57 AM 28.2486 -86.6836 286° West 446 513 40,000  Level Jacksonville Center
Thu 09:54:57 AM 28.2842 -86.8192 287° West 441 507 40,000  Level Jacksonville Center
Thu 09:55:58 AM 28.3133 -86.9500 284° West 441 507 40,000  Level Jacksonville Center
Thu 09:56:57 AM 28.3486 -87.0858 286° West 441 507 40,000  Level Jacksonville Center
Thu 09:57:57 AM 28.3758 -87.2119 284° West 429 494 40,000  Level Jacksonville Center
Thu 09:58:47 AM 28.4042 -87.3192 287° West 443 510 40,000  Level Houston Center
Thu 09:59:49 AM 28.4375 -87.4542 286° West 444 511 40,000  Level Houston Center
Thu 10:00:51 AM 28.4756 -87.6150 285° West 440 506 40,000  Level Houston Center
Thu 10:01:53 AM 28.5069 -87.7503 285° West 443 510 40,000  Level Houston Center
Thu 10:02:55 AM 28.5403 -87.8886 285° West 450 518 40,000  Level Houston Center
Thu 10:03:57 AM 28.5717 -88.0244 285° West 447 514 40,000  Level Houston Center
Thu 10:04:59 AM 28.6081 -88.1786 285° West 445 512 40,000  Level Houston Center
Thu 10:06:01 AM 28.6389 -88.3114 285° West 439 505 40,000  Level Houston Center
Thu 10:07:03 AM 28.6714 -88.4469 285° West 441 507 40,000  Level Houston Center
Thu 10:08:06 AM 28.7014 -88.5814 284° West 441 507 40,000  Level Houston Center
Thu 10:09:08 AM 28.7325 -88.7158 285° West 439 505 40,000  Level Houston Center
Thu 10:10:10 AM 28.7633 -88.8500 285° West 438 504 40,000  Level Houston Center
Thu 10:11:12 AM 28.7983 -89.0108 284° West 437 503 40,000  Level Houston Center
Thu 10:12:14 AM 28.8236 -89.1489 282° West 444 511 40,000  Level Houston Center
Thu 10:13:16 AM 28.8261 -89.2906 271° West 447 514 40,000  Level Houston Center
Thu 10:14:20 AM 28.8281 -89.4297 271° West 443 510 40,000  Level Houston Center
Thu 10:15:20 AM 28.8308 -89.5700 271° West 442 509 40,000  Level Houston Center
Thu 10:16:22 AM 28.8322 -89.7111 271° West 445 512 40,000  Level Houston Center
Thu 10:17:25 AM 28.8350 -89.8783 271° West 440 506 40,000  Level Houston Center
Thu 10:18:27 AM 28.8364 -90.0183 271° West 442 509 40,000  Level Houston Center
Thu 10:19:29 AM 28.8381 -90.1572 271° West 439 505 40,000  Level Houston Center
Thu 10:20:31 AM 28.8403 -90.2967 271° West 440 506 40,000  Level Houston Center
Thu 10:21:33 AM 28.8403 -90.4358 270° West 441 507 40,000  Level Houston Center
Thu 10:22:35 AM 28.8294 -90.5750 265° West 442 509 40,000  Level Houston Center
Thu 10:23:37 AM 28.8097 -90.7419 262° West 442 509 40,000  Level Houston Center
Thu 10:24:39 AM 28.7925 -90.8808 262° West 442 509 40,000  Level Houston Center
Thu 10:25:41 AM 28.7758 -91.0203 262° West 444 511 40,000  Level Houston Center
Thu 10:26:44 AM 28.7592 -91.1589 262° West 443 510 40,000  Level Houston Center
Thu 10:27:46 AM 28.7408 -91.2958 261° West 439 505 40,000  Level Houston Center
Thu 10:28:48 AM 28.7239 -91.4347 262° West 441 507 40,000  Level Houston Center
Thu 10:29:50 AM 28.7028 -91.6011 262° West 443 510 40,000  Level Houston Center
Thu 10:30:52 AM 28.6858 -91.7411 262° West 442 509 40,000  Level Houston Center
Thu 10:31:54 AM 28.6675 -91.8781 261° West 440 506 40,000  Level Houston Center
Thu 10:32:56 AM 28.6503 -92.0161 262° West 440 506 40,000  Level Houston Center
Thu 10:33:58 AM 28.6328 -92.1531 262° West 438 504 40,000  Level Houston Center
Thu 10:35:01 AM 28.6147 -92.2903 262° West 439 505 40,000  Level Houston Center
Thu 10:36:03 AM 28.5936 -92.4547 262° West 440 506 40,000  Level Houston Center
Thu 10:37:05 AM 28.5750 -92.5917 261° West 439 505 40,000  Level Houston Center
Thu 10:38:08 AM 28.5561 -92.7300 261° West 441 507 40,000  Level Houston Center
Thu 10:39:09 AM 28.5375 -92.8661 261° West 438 504 40,000  Level Houston Center
Thu 10:40:11 AM 28.5181 -93.0019 261° West 435 501 40,000  Level Houston Center
Thu 10:41:13 AM 28.4994 -93.1392 261° West 437 503 40,000  Level Houston Center
Thu 10:42:15 AM 28.4772 -93.2992 261° West 442 509 40,000  Level Houston Center
Thu 10:43:18 AM 28.4589 -93.4361 261° West 440 506 40,000  Level Houston Center
Thu 10:44:20 AM 28.4392 -93.5742 261° West 442 509 40,000  Level Houston Center
Thu 10:45:22 AM 28.4181 -93.7133 260° West 445 512 40,000 48 Level Houston Center
Thu 10:46:24 AM 28.4000 -93.8503 262° West 440 506 40,100 629 Climbing Houston Center
Thu 10:47:26 AM 28.3758 -94.0133 260° West 437 503 41,300 1,016 Climbing Houston Center
Thu 10:48:28 AM 28.3564 -94.1492 261° West 437 503 42,200 726 Climbing Houston Center
Thu 10:49:30 AM 28.3353 -94.2858 260° West 438 504 42,800 387 Climbing Houston Center
Thu 10:50:32 AM 28.3150 -94.4206 260° West 435 501 43,000 97 Climbing Houston Center
Thu 10:51:34 AM 28.2953 -94.5556 261° West 435 501 43,000  Level Houston Center
Thu 10:52:38 AM 28.2756 -94.6897 261° West 432 497 43,000  Level Houston Center
Thu 10:53:40 AM 28.2503 -94.8506 260° West 431 496 43,000  Level Houston Center
Thu 10:54:41 AM 28.2306 -94.9842 261° West 430 495 43,000  Level Houston Center
Thu 10:55:43 AM 28.2094 -95.1189 260° West 433 498 43,000  Level Houston Center
Thu 10:56:45 AM 28.1894 -95.2544 261° West 436 502 43,000  Level Houston Center
Thu 10:57:47 AM 28.1683 -95.3883 260° West 432 497 43,000  Level Houston Center
Thu 10:58:49 AM 28.1475 -95.5219 260° West 432 497 43,000  Level Houston Center
Thu 10:59:51 AM 28.1247 -95.6697 260° West 432 497 43,000  Level Houston Center
Thu 11:00:53 AM 28.1036 -95.8019 260° West 428 493 43,000  Level Houston Center
Thu 11:01:55 AM 28.0822 -95.9347 260° West 427 491 43,000  Level Houston Center
Thu 11:02:58 AM 28.0564 -96.0953 260° West 431 496 43,000  Level Houston Center
Thu 11:04:00 AM 28.0353 -96.2267 260° West 427 491 43,000  Level Houston Center
Thu 11:05:02 AM 28.0133 -96.3600 259° West 430 495 43,000  Level Houston Center
Thu 11:06:04 AM 27.9919 -96.4917 260° West 428 493 43,000  Level Houston Center
Thu 11:07:06 AM 27.9694 -96.6247 259° West 429 494 43,000  Level Houston Center
Thu 11:08:08 AM 27.9483 -96.7581 260° West 430 495 43,000  Level Houston Center
Thu 11:09:10 AM 27.9247 -96.8903 259° West 429 494 43,000  Level Houston Center
Thu 11:10:12 AM 27.9000 -97.0483 260° West 427 491 43,000  Level Houston Center
Thu 11:11:14 AM 27.8781 -97.1697 258° West 426 490 43,000  Level Houston Center
Thu 11:12:17 AM 27.8556 -97.3011 259° West 426 490 43,000  Level Houston Center
Thu 11:13:19 AM 27.8278 -97.4589 259° West 427 491 43,000  Level Houston Center
Thu 11:14:21 AM 27.8056 -97.5908 259° West 429 494 43,000  Level Houston Center
Thu 11:15:23 AM 27.7819 -97.7244 259° West 433 498 43,000  Level Houston Center
Thu 11:16:25 AM 27.7589 -97.8589 259° West 437 503 43,000  Level Houston Center
Thu 11:17:27 AM 27.7347 -97.9922 258° West 436 502 43,000  Level Houston Center
Thu 11:18:29 AM 27.7114 -98.1261 259° West 436 502 43,000  Level Houston Center
Thu 11:19:31 AM 27.6842 -98.2867 259° West 436 502 43,000  Level Houston Center
Thu 11:20:33 AM 27.6603 -98.4200 259° West 434 499 43,000  Level Houston Center
Thu 11:21:36 AM 27.6361 -98.5547 259° West 438 504 43,000  Level Houston Center
Thu 11:22:38 AM 27.6128 -98.6883 259° West 437 503 43,000  Level Houston Center
Thu 11:23:40 AM 27.5894 -98.8217 259° West 436 502 43,000  Level Houston Center
Thu 11:24:42 AM 27.5606 -98.9725 258° West 443 510 43,000  Level Houston Center
Thu 11:25:44 AM 27.5358 -99.1156 259° West 452 520 43,000  Level Houston Center
Thu 11:26:46 AM 27.5108 -99.2483 258° West 439 505 43,000  Level Houston Center
Thu 11:27:48 AM 27.4856 -99.3811 258° West 436 502 43,000  Level Houston Center
Thu 11:28:50 AM 27.4461 -99.5378 254° West 435 501 43,000  Level Houston Center
Thu 11:30:00 AM 27.3895 -99.6791 255° West  Level FlightAware Approximate
Thu 11:37:00 AM 27.1703 -100.5761 255° West  Level FlightAware Approximate
Thu 11:38:00 AM 27.1391 -100.7042 255° West  Level FlightAware Approximate
Thu 11:39:00 AM 27.1077 -100.8321 255° West  Level FlightAware Approximate
Thu 11:40:00 AM 27.0762 -100.9600 255° West  Level FlightAware Approximate
Thu 11:41:00 AM 27.0445 -101.0878 254° West  Level FlightAware Approximate
Thu 11:42:00 AM 27.0128 -101.2155 254° West  Level FlightAware Approximate
Thu 11:43:00 AM 26.9809 -101.3432 254° West  Level FlightAware Approximate
Thu 11:44:00 AM 26.9477 -101.4700 232° Southwest  Level FlightAware Approximate
Thu 11:45:00 AM 26.8746 -101.5742 232° Southwest  Level FlightAware Approximate
Thu 11:46:00 AM 26.8016 -101.6782 232° Southwest  Level FlightAware Approximate
Thu 11:47:00 AM 26.7284 -101.7820 232° Southwest  Level FlightAware Approximate
Thu 11:48:00 AM 26.6552 -101.8858 232° Southwest  Level FlightAware Approximate
Thu 11:49:00 AM 26.5819 -101.9894 232° Southwest  Level FlightAware Approximate
Thu 11:50:00 AM 26.5084 -102.0928 232° Southwest  Level FlightAware Approximate
Thu 11:51:00 AM 26.4350 -102.1962 232° Southwest  Level FlightAware Approximate
Thu 11:52:00 AM 26.3614 -102.2994 232° Southwest  Level FlightAware Approximate
Thu 11:53:00 AM 26.2878 -102.4024 231° Southwest  Level FlightAware Approximate
Thu 11:54:00 AM 26.2141 -102.5054 231° Southwest  Level FlightAware Approximate
Thu 11:55:00 AM 26.1404 -102.6082 231° Southwest  Level FlightAware Approximate
Thu 11:56:00 AM 26.0665 -102.7109 231° Southwest  Level FlightAware Approximate
Thu 11:57:00 AM 25.9926 -102.8134 231° Southwest  Level FlightAware Approximate
Thu 11:58:00 AM 25.9186 -102.9158 231° Southwest  Level FlightAware Approximate
Thu 11:59:00 AM 25.8446 -103.0181 231° Southwest  Level FlightAware Approximate
Thu 12:00:00 PM 25.7705 -103.1203 231° Southwest  Level FlightAware Approximate
Thu 12:01:00 PM 25.6963 -103.2223 231° Southwest  Level FlightAware Approximate
Thu 12:02:00 PM 25.6220 -103.3242 231° Southwest  Level FlightAware Approximate
Thu 12:03:00 PM 25.5613 -103.4329 260° West  Level FlightAware Approximate
Thu 12:04:00 PM 25.5401 -103.5618 260° West  Level FlightAware Approximate
Thu 12:05:00 PM 25.5188 -103.6905 260° West  Level FlightAware Approximate
Thu 12:06:00 PM 25.4974 -103.8192 260° West  Level FlightAware Approximate
Thu 12:07:00 PM 25.4759 -103.9479 260° West  Level FlightAware Approximate
Thu 12:08:00 PM 25.4543 -104.0765 259° West  Level FlightAware Approximate
Thu 12:09:00 PM 25.4326 -104.2051 259° West  Level FlightAware Approximate
Thu 12:10:00 PM 25.4107 -104.3336 259° West  Level FlightAware Approximate
Thu 12:11:00 PM 25.3887 -104.4621 259° West  Level FlightAware Approximate
Thu 12:12:00 PM 25.3667 -104.5906 259° West  Level FlightAware Approximate
Thu 12:13:00 PM 25.3445 -104.7190 259° West  Level FlightAware Approximate
Thu 12:14:00 PM 25.3242 -104.8477 261° West  Level FlightAware Approximate
Thu 12:15:00 PM 25.3028 -104.9762 259° West  Level FlightAware Approximate
Thu 12:16:00 PM 25.2794 -105.1042 259° West  Level FlightAware Approximate
Thu 12:17:00 PM 25.2558 -105.2322 259° West  Level FlightAware Approximate
Thu 12:18:00 PM 25.2322 -105.3602 258° West  Level FlightAware Approximate
Thu 12:19:00 PM 25.2084 -105.4881 258° West  Level FlightAware Approximate
Thu 12:20:00 PM 25.1868 -105.6164 260° West  Level FlightAware Approximate
Thu 12:21:00 PM 25.1663 -105.7450 260° West  Level FlightAware Approximate
Thu 12:22:00 PM 25.1457 -105.8735 260° West  Level FlightAware Approximate
Thu 12:23:00 PM 25.1208 -106.0009 255° West  Level FlightAware Approximate
Thu 12:24:00 PM 25.0896 -106.1267 255° West  Level FlightAware Approximate
Thu 12:25:00 PM 25.0583 -106.2525 255° West  Level FlightAware Approximate
Thu 12:26:00 PM 25.0269 -106.3782 255° West  Level FlightAware Approximate
Thu 12:27:00 PM 24.9954 -106.5038 255° West  Level FlightAware Approximate
Thu 12:28:00 PM 24.9638 -106.6294 255° West  Level FlightAware Approximate
Thu 12:29:00 PM 24.9321 -106.7549 254° West  Level FlightAware Approximate
Thu 12:30:00 PM 24.9003 -106.8803 254° West  Level FlightAware Approximate
Thu 12:31:00 PM 24.8684 -107.0057 254° West  Level FlightAware Approximate
Thu 12:32:00 PM 24.8364 -107.1310 254° West  Level FlightAware Approximate
Thu 12:33:00 PM 24.8043 -107.2562 254° West  Level FlightAware Approximate
Thu 12:34:00 PM 24.7720 -107.3814 254° West  Level FlightAware Approximate
Thu 12:35:00 PM 24.7287 -107.5008 236° Southwest  Level FlightAware Approximate
Thu 12:36:00 PM 24.6608 -107.6071 228° Southwest  Level FlightAware Approximate
Thu 12:37:00 PM 24.5812 -107.7031 234° Southwest  Level FlightAware Approximate
Thu 12:38:00 PM 24.5114 -107.8079 234° Southwest  Level FlightAware Approximate
Thu 12:39:00 PM 24.4403 -107.9115 232° Southwest  Level FlightAware Approximate
Thu 12:40:00 PM 24.3683 -108.0143 232° Southwest  Level FlightAware Approximate
Thu 12:41:00 PM 24.2915 -108.1128 234° Southwest  Level FlightAware Approximate
Thu 12:42:00 PM 24.2218 -108.2173 234° Southwest  Level FlightAware Approximate
Thu 12:43:00 PM 24.1521 -108.3219 234° Southwest  Level FlightAware Approximate
Thu 12:44:00 PM 24.0774 -108.4220 230° Southwest  Level FlightAware Approximate
Thu 12:45:00 PM 24.0015 -108.5212 232° Southwest  Level FlightAware Approximate
Thu 12:46:00 PM 23.9287 -108.6229 232° Southwest  Level FlightAware Approximate
Thu 12:47:00 PM 23.8557 -108.7246 232° Southwest  Level FlightAware Approximate
Thu 12:48:00 PM 23.7828 -108.8261 232° Southwest  Level FlightAware Approximate
Thu 12:49:00 PM 23.7097 -108.9275 232° Southwest  Level FlightAware Approximate
Thu 12:50:00 PM 23.6366 -109.0288 232° Southwest  Level FlightAware Approximate
Thu 12:51:00 PM 23.5619 -109.1287 231° Southwest  Level FlightAware Approximate
Thu 12:52:00 PM 23.4904 -109.2312 234° Southwest  Level FlightAware Approximate
Thu 12:53:00 PM 23.4209 -109.3353 234° Southwest  Level FlightAware Approximate
Thu 12:54:00 PM 23.3478 -109.4363 231° Southwest  Level FlightAware Approximate
Thu 12:55:00 PM 23.2731 -109.5359 231° Southwest  Level FlightAware Approximate
Thu 12:56:00 PM 23.1964 -109.6337 229° Southwest  Level FlightAware Approximate
Thu 12:57:00 PM 23.1333 -109.7167 231° Southwest  Level FlightAware Approximate
Thu 12:58:00 PM 23.1518 -109.7210 231° Southwest  Level Estimated
Thu 12:59:00 PM 23.1518 -109.7210 231° Southwest  Level Estimated
Thu 01:00:00 PM 23.1518 -109.7210 231° Southwest  Level Estimated
Thu 01:01:00 PM 23.1518 -109.7210 231° Southwest  Level Estimated
Thu 01:02:00 PM 23.1518 -109.7210 231° Southwest  Level Estimated
Thu 01:03:00 PM 23.1518 -109.7210 231° Southwest  Level Estimated
Thu 01:04:00 PM 23.1518 -109.7210 231° Southwest  Level Estimated
Thu 01:05:00 PM 23.1518 -109.7210 231° Southwest  Level Estimated
Thu 01:06:00 PM 23.1518 -109.7210 231° Southwest  Level Estimated
Thu 01:07:00 PM 23.1518 -109.7210 231° Southwest  Level Estimated
Thu 01:08:00 PM 23.1518 -109.7210 231° Southwest  Level Estimated
Thu 01:09:00 PM 23.1518 -109.7210 231° Southwest  Level Estimated
Thu 01:10:00 PM 23.1518 -109.7210 231° Southwest  Level Estimated
Thu 01:11:00 PM 23.1518 -109.7210 231° Southwest  Level Estimated
Thu 01:12:00 PM 23.1518 -109.7210 231° Southwest  Level Estimated
Thu 01:13:00 PM 23.1518 -109.7210 231° Southwest  Level Estimated
Thu 01:14:00 PM 23.1518 -109.7210 231° Southwest  Level Estimated
Thu 01:15:00 PM 23.1518 -109.7210 231° Southwest  Level Estimated

Login

Don't have an account? Register now (free) for customized features, flight alerts, and more!